Time;durP1;ratioP1;P1;durP2;ratioP2;P2;SDS_P1;SDS_P2;PMS_P1;PMS_P2;Temp;Humidity;BMP_temperature;BMP_pressure;BME280_temperature;BME280_humidity;BME280_pressure;Samples;Min_cycle;Max_cycle;Signal;HPM_P1;HPM_P2
2022/11/27 00:01:34;;;;;;;11.98;3.28;;;5.40;99.90;;;-144.05;72.11;125687.94;5012038;28;20030;-83
2022/11/27 00:04:00;;;;;;;6.30;3.20;;;5.30;99.90;;;-144.05;71.69;125687.94;4995385;28;20026;-84
2022/11/27 00:06:29;;;;;;;14.90;3.50;;;5.40;99.90;;;-144.05;71.49;125687.94;5011591;28;20107;-83
2022/11/27 00:08:59;;;;;;;9.35;3.33;;;5.40;99.90;;;-144.05;71.84;125687.94;4995251;28;20117;-83
2022/11/27 00:11:29;;;;;;;7.63;2.83;;;5.30;99.90;;;-144.05;72.28;125687.94;5012440;28;20030;-83
2022/11/27 00:13:57;;;;;;;7.60;2.97;;;5.40;99.90;;;-144.05;71.51;125687.94;4995982;28;20030;-83
2022/11/27 00:16:25;;;;;;;10.25;3.70;;;5.40;99.90;;;-144.05;71.63;125687.94;5012190;28;20037;-83
2022/11/27 00:18:52;;;;;;;11.20;2.90;;;5.30;99.90;;;-144.05;71.40;125687.94;4996289;28;20049;-85
2022/11/27 00:21:23;;;;;;;8.70;3.13;;;5.40;99.90;;;-144.05;71.45;125687.94;5018001;28;20026;-85
2022/11/27 00:23:55;;;;;;;5.85;3.35;;;5.30;99.90;;;-144.05;71.84;125687.94;5007866;28;20044;-82
2022/11/27 00:26:22;;;;;;;8.27;2.83;;;5.40;99.90;;;-144.05;71.10;125687.94;5013550;28;20375;-81
2022/11/27 00:28:50;;;;;;;8.63;2.85;;;5.40;99.90;;;-144.05;70.69;125687.94;4994946;28;20033;-82
2022/11/27 00:31:28;;;;;;;11.98;3.28;;;5.30;99.90;;;-144.05;71.53;125687.94;4994960;28;20030;-81
2022/11/27 00:33:58;;;;;;;10.32;3.15;;;5.20;99.90;;;-144.05;71.97;125687.94;5010845;28;20033;-82
2022/11/27 00:36:26;;;;;;;8.52;3.35;;;5.30;99.90;;;-144.05;71.31;125687.94;4994379;28;20026;-83
2022/11/27 00:38:52;;;;;;;9.60;3.40;;;5.30;99.90;;;-144.05;71.07;125687.94;5012318;28;20045;-81
2022/11/27 00:41:23;;;;;;;8.57;3.40;;;5.20;99.90;;;-144.05;71.11;125687.94;5011011;28;20065;-82
2022/11/27 00:43:51;;;;;;;8.30;3.28;;;5.20;99.90;;;-144.05;71.89;125687.94;4994246;28;20041;-82
2022/11/27 00:46:23;;;;;;;9.38;3.35;;;5.20;99.90;;;-144.05;71.27;125687.94;4994337;28;20030;-82
2022/11/27 00:48:50;;;;;;;9.30;3.55;;;5.10;99.90;;;-144.05;71.37;125687.94;4993994;28;20297;-82
2022/11/27 00:51:22;;;;;;;7.43;2.97;;;5.10;99.90;;;-144.05;71.18;125687.94;5010908;28;20386;-83
2022/11/27 00:53:48;;;;;;;8.82;3.00;;;5.00;99.90;;;-144.05;72.05;125687.94;4994651;28;20026;-81
2022/11/27 00:56:30;;;;;;;7.53;3.45;;;5.00;99.90;;;-144.05;71.67;125687.94;4994471;28;20385;-85
2022/11/27 00:58:57;;;;;;;10.60;4.07;;;5.00;99.90;;;-144.05;72.46;125687.94;5011367;28;20040;-81
2022/11/27 01:01:32;;;;;;;11.98;3.47;;;5.00;99.90;;;-144.05;71.62;125687.94;5012115;28;20034;-82
2022/11/27 01:04:01;;;;;;;9.15;4.25;;;4.90;99.90;;;-144.05;71.66;125687.94;5012342;28;20052;-82
2022/11/27 01:06:29;;;;;;;10.85;4.47;;;4.90;99.90;;;-144.05;71.79;125687.94;5010517;28;20034;-81
2022/11/27 01:08:56;;;;;;;12.80;3.38;;;4.90;99.90;;;-144.05;71.42;125687.94;4994307;28;20080;-83
2022/11/27 01:11:28;;;;;;;10.32;3.20;;;4.80;99.90;;;-144.05;71.78;125687.94;5010481;28;20033;-81
2022/11/27 01:14:00;;;;;;;7.97;3.40;;;4.80;99.90;;;-144.05;71.47;125687.94;5010734;28;20029;-81
2022/11/27 01:16:30;;;;;;;7.93;3.22;;;4.80;99.90;;;-144.05;71.95;125687.94;4994114;28;20083;-81
2022/11/27 01:19:00;;;;;;;7.60;3.50;;;4.80;99.90;;;-144.05;71.37;125687.94;5010578;28;20042;-81
2022/11/27 01:21:31;;;;;;;10.43;3.47;;;4.70;99.90;;;-144.05;71.77;125687.94;5010721;28;20030;-81
2022/11/27 01:24:00;;;;;;;9.40;4.07;;;4.70;99.90;;;-144.05;72.16;125687.94;4994159;28;20556;-81
2022/11/27 01:26:27;;;;;;;12.40;3.60;;;4.80;99.90;;;-144.05;71.77;125687.94;4994430;28;20026;-81
2022/11/27 01:28:56;;;;;;;9.73;4.00;;;4.80;99.90;;;-144.05;71.21;125687.94;4994086;28;20438;-82
2022/11/27 01:31:27;;;;;;;10.38;3.65;;;4.80;99.90;;;-144.05;70.87;125687.94;5010618;28;20083;-81
2022/11/27 01:34:00;;;;;;;8.88;3.53;;;4.80;99.90;;;-144.05;70.60;125687.94;5010703;28;20060;-82
2022/11/27 01:36:28;;;;;;;6.68;3.50;;;4.70;99.90;;;-144.05;71.10;125687.94;4994017;28;20095;-82
2022/11/27 01:38:55;;;;;;;8.98;3.42;;;4.70;99.90;;;-144.05;71.50;125687.94;5010241;28;20044;-81
2022/11/27 01:41:35;;;;;;;5.13;2.85;;;4.70;99.90;;;-144.05;70.82;125687.94;4993716;28;20489;-82
2022/11/27 01:44:24;;;;;;;6.15;3.17;;;4.70;99.90;;;-144.05;71.10;125687.94;5011408;28;20034;-82
2022/11/27 01:46:59;;;;;;;10.73;3.67;;;4.60;99.90;;;-144.05;71.34;125687.94;4993721;28;20080;-82
2022/11/27 01:49:47;;;;;;;8.10;4.30;;;4.60;99.90;;;-144.05;71.48;125687.94;5009823;28;20081;-82
2022/11/27 01:52:26;;;;;;;7.10;3.65;;;4.60;99.90;;;-144.05;71.62;125687.94;4993705;28;20034;-81
2022/11/27 01:55:41;;;;;;;8.32;3.47;;;4.60;99.90;;;-144.05;71.52;125687.94;4993717;28;20037;-82
2022/11/27 01:58:29;;;;;;;7.00;3.67;;;4.60;99.90;;;-144.05;71.08;125687.94;5010194;28;20022;-83
2022/11/27 02:00:55;;;;;;;7.25;3.53;;;4.50;99.90;;;-144.05;71.33;125687.94;5013516;28;20538;-82
2022/11/27 02:03:22;;;;;;;5.90;3.47;;;4.60;99.90;;;-144.05;71.11;125687.94;4997750;28;20034;-85
2022/11/27 02:05:48;;;;;;;6.22;3.63;;;4.50;99.90;;;-144.05;71.36;125687.94;5014125;28;20080;-81
2022/11/27 02:08:17;;;;;;;9.55;3.50;;;4.60;99.90;;;-144.05;71.38;125687.94;5013366;28;20034;-82
2022/11/27 02:11:07;;;;;;;11.00;3.80;;;4.70;99.90;;;-144.05;71.09;125687.94;5013448;28;20034;-81
2022/11/27 02:14:14;;;;;;;8.68;3.75;;;4.70;99.90;;;-144.05;70.88;125687.94;5013446;28;20029;-82
2022/11/27 02:17:37;;;;;;;8.45;2.97;;;4.70;99.90;;;-144.05;71.17;125687.94;5013296;28;20030;-83
2022/11/27 02:20:28;;;;;;;7.40;3.60;;;4.70;99.90;;;-144.05;70.93;125687.94;5013444;28;20489;-82
2022/11/27 02:23:46;;;;;;;12.45;3.20;;;4.70;99.90;;;-144.05;71.05;125687.94;5013675;28;20022;-82
2022/11/27 02:26:59;;;;;;;9.40;3.30;;;4.70;99.90;;;-144.05;70.64;125687.94;4997727;28;20026;-81
2022/11/27 02:29:32;;;;;;;10.35;3.70;;;4.70;99.90;;;-144.05;71.08;125687.94;5014997;28;20044;-81
2022/11/27 02:32:27;;;;;;;10.00;3.65;;;4.70;99.90;;;-144.05;70.64;125687.94;5013763;28;20037;-82
2022/11/27 02:35:17;;;;;;;8.07;3.63;;;4.70;99.90;;;-144.05;70.76;125687.94;4997681;28;20030;-82
2022/11/27 02:38:12;;;;;;;11.93;4.15;;;4.60;99.90;;;-144.05;70.95;125687.94;5014444;28;20030;-83
2022/11/27 02:41:21;;;;;;;7.45;2.92;;;4.80;99.90;;;-144.05;70.22;125687.94;4998492;28;20030;-83
2022/11/27 02:43:52;;;;;;;6.53;3.28;;;4.70;99.90;;;-144.05;70.17;125687.94;5015443;28;20392;-84
2022/11/27 02:46:20;;;;;;;6.78;3.13;;;4.70;99.90;;;-144.05;70.24;125687.94;5024333;28;20037;-82
2022/11/27 02:49:06;;;;;;;5.55;2.90;;;4.70;99.90;;;-144.05;69.41;125687.94;5030749;28;20049;-81
2022/11/27 02:51:40;;;;;;;;;;;4.70;99.90;;;-144.05;69.51;125687.94;5015018;28;20029;-82
2022/11/27 02:54:18;;;;;;;11.23;3.35;;;4.70;99.90;;;-144.05;69.83;125687.94;4997562;28;20201;-81
2022/11/27 02:56:49;;;;;;;9.25;3.22;;;4.70;99.90;;;-144.05;69.81;125687.94;5013075;28;20026;-81
2022/11/27 02:59:20;;;;;;;10.98;3.47;;;4.70;99.90;;;-144.05;70.41;125687.94;5012704;28;20064;-81
2022/11/27 03:02:04;;;;;;;6.30;3.53;;;4.70;99.90;;;-144.05;69.83;125687.94;5012872;28;20041;-82
2022/11/27 03:04:44;;;;;;;8.27;3.50;;;4.80;99.90;;;-144.05;70.19;125687.94;5012917;28;20061;-81
2022/11/27 03:08:07;;;;;;;9.57;4.15;;;4.80;99.90;;;-144.05;69.31;125687.94;4996189;28;20037;-80
2022/11/27 03:11:05;;;;;;;10.00;3.58;;;4.90;99.90;;;-144.05;69.18;125687.94;4966006;28;20053;-82
2022/11/27 03:13:42;;;;;;;5.53;3.35;;;4.90;99.90;;;-144.05;68.93;125687.94;4996364;28;20030;-82
2022/11/27 03:16:27;;;;;;;7.90;3.70;;;4.90;99.90;;;-144.05;68.64;125687.94;5012243;28;20057;-81
2022/11/27 03:19:30;;;;;;;7.80;4.00;;;4.90;99.90;;;-144.05;68.50;125687.94;5012084;28;20038;-80
2022/11/27 03:22:01;;;;;;;10.07;4.20;;;4.90;99.90;;;-144.05;69.61;125687.94;5012316;28;20026;-82
2022/11/27 03:24:33;;;;;;;11.15;4.70;;;4.90;99.90;;;-144.05;69.47;125687.94;5012362;28;20033;-81
2022/11/27 03:27:00;;;;;;;9.93;3.95;;;4.80;99.90;;;-144.05;69.56;125687.94;5012544;28;20389;-84
2022/11/27 03:29:42;;;;;;;12.00;3.70;;;4.80;99.90;;;-144.05;69.72;125687.94;4998709;28;20033;-84
2022/11/27 03:32:08;;;;;;;9.18;3.70;;;4.90;99.90;;;-144.05;69.50;125687.94;5029365;28;20040;-84
2022/11/27 03:34:36;;;;;;;9.55;4.18;;;4.90;99.90;;;-144.05;68.84;125687.94;5031507;28;20133;-82
2022/11/27 03:37:03;;;;;;;7.18;3.83;;;4.90;99.90;;;-144.05;68.76;125687.94;5019592;28;20026;-82
2022/11/27 03:39:31;;;;;;;7.53;4.00;;;4.90;99.90;;;-144.05;69.27;125687.94;4995559;28;20556;-81
2022/11/27 03:42:26;;;;;;;9.73;4.60;;;4.80;99.90;;;-144.05;69.89;125687.94;5011907;28;20033;-82
2022/11/27 03:45:33;;;;;;;12.07;5.22;;;4.80;99.90;;;-144.05;69.47;125687.94;4995494;28;20486;-82
2022/11/27 03:48:54;;;;;;;13.07;3.70;;;4.90;99.90;;;-144.05;68.89;125687.94;4995152;28;20026;-82
2022/11/27 03:51:54;;;;;;;10.52;4.03;;;5.00;99.90;;;-144.05;68.72;125687.94;4995596;28;20038;-82
2022/11/27 03:55:14;;;;;;;10.90;4.35;;;5.00;99.90;;;-144.05;68.42;125687.94;4995658;28;20097;-81
2022/11/27 03:58:03;;;;;;;8.60;4.07;;;5.10;99.90;;;-144.05;68.23;125687.94;4987625;28;20038;-80
2022/11/27 04:00:39;;;;;;;13.98;4.85;;;5.10;99.90;;;-144.05;68.06;125687.94;5011319;28;20033;-81
2022/11/27 04:03:11;;;;;;;5.47;3.35;;;5.10;99.90;;;-144.05;67.76;125687.94;4995368;28;20069;-81
2022/11/27 04:05:38;;;;;;;14.70;4.20;;;5.20;99.90;;;-144.05;67.52;125687.94;4995194;28;20032;-81
2022/11/27 04:08:04;;;;;;;9.30;4.40;;;5.20;99.90;;;-144.05;67.37;125687.94;5011007;28;20120;-81
2022/11/27 04:10:30;;;;;;;10.00;4.07;;;5.20;99.90;;;-144.05;67.04;125687.94;4994906;28;20025;-81
2022/11/27 04:12:56;;;;;;;10.98;4.05;;;5.30;99.90;;;-144.05;66.73;125687.94;5011284;28;20393;-81
2022/11/27 04:15:22;;;;;;;9.05;3.45;;;5.30;99.90;;;-144.05;66.21;125687.94;4994844;28;20029;-82
2022/11/27 04:17:48;;;;;;;8.32;3.47;;;5.40;99.90;;;-144.05;65.99;125687.94;5034450;23;20057;-84
2022/11/27 04:20:14;;;;;;;8.45;3.83;;;5.50;99.90;;;-144.05;65.33;125687.94;5005608;28;20089;-85
2022/11/27 04:22:41;;;;;;;8.30;3.40;;;5.50;99.90;;;-144.05;64.88;125687.94;5021554;28;20124;-84
2022/11/27 04:25:08;;;;;;;9.52;4.47;;;5.50;99.90;;;-144.05;65.03;125687.94;5016885;28;20030;-83
2022/11/27 04:27:33;;;;;;;5.88;3.38;;;5.60;99.90;;;-144.05;64.84;125687.94;5015201;28;20033;-84
2022/11/27 04:29:59;;;;;;;6.95;3.47;;;5.60;99.90;;;-144.05;64.19;125687.94;5015865;28;20041;-83
2022/11/27 04:32:25;;;;;;;11.57;3.72;;;5.60;99.90;;;-144.05;64.45;125687.94;5014586;28;20338;-83
2022/11/27 04:34:51;;;;;;;7.63;3.47;;;5.70;99.90;;;-144.05;63.92;125687.94;5015148;28;20034;-84
2022/11/27 04:37:17;;;;;;;10.65;3.95;;;5.70;99.90;;;-144.05;63.60;125687.94;5014750;28;20026;-81
2022/11/27 04:39:43;;;;;;;7.20;3.15;;;5.70;99.90;;;-144.05;63.72;125687.94;5014782;28;20066;-83
2022/11/27 04:42:09;;;;;;;7.93;3.42;;;5.80;99.90;;;-144.05;63.40;125687.94;5016499;28;20037;-82
2022/11/27 04:44:35;;;;;;;11.25;3.70;;;5.80;99.90;;;-144.05;63.06;125687.94;5016852;28;20035;-83
2022/11/27 04:47:01;;;;;;;6.97;3.67;;;5.80;99.90;;;-144.05;63.20;125687.94;5016122;28;20134;-83
2022/11/27 04:49:27;;;;;;;10.05;3.13;;;5.80;99.90;;;-144.05;63.05;125687.94;5015610;28;20036;-83
2022/11/27 04:51:53;;;;;;;8.40;3.33;;;5.80;99.90;;;-144.05;62.79;125687.94;4999877;28;20361;-84
2022/11/27 04:54:18;;;;;;;8.27;3.40;;;5.90;99.90;;;-144.05;62.59;125687.94;5016514;28;20045;-84
2022/11/27 04:56:44;;;;;;;10.43;3.83;;;6.00;99.90;;;-144.05;61.94;125687.94;5017971;28;20033;-83
2022/11/27 04:59:10;;;;;;;6.75;3.67;;;6.00;99.90;;;-144.05;62.07;125687.94;5016986;28;20036;-82
2022/11/27 05:01:36;;;;;;;10.80;4.10;;;6.10;99.90;;;-144.05;61.79;125687.94;5017426;28;20057;-84
2022/11/27 05:04:02;;;;;;;11.18;4.30;;;6.10;99.90;;;-144.05;61.57;125687.94;5001434;28;20064;-82
2022/11/27 05:06:28;;;;;;;11.43;3.78;;;6.10;99.90;;;-144.05;61.84;125687.94;5002562;28;20102;-84
2022/11/27 05:08:58;;;;;;;8.15;3.20;;;6.10;99.90;;;-144.05;61.50;125687.94;5021943;28;20473;-83
2022/11/27 05:11:25;;;;;;;9.75;4.13;;;6.10;99.90;;;-144.05;61.99;125687.94;5003857;28;20105;-85
2022/11/27 05:14:13;;;;;;;11.18;4.28;;;6.10;99.90;;;-144.05;61.86;125687.94;5005214;28;20022;-84
2022/11/27 05:16:37;;;;;;;10.00;3.85;;;6.10;99.90;;;-144.05;61.65;125687.94;5023541;28;20084;-83
2022/11/27 05:19:02;;;;;;;9.48;3.50;;;6.20;99.90;;;-144.05;61.45;125687.94;5029175;28;20034;-84
2022/11/27 05:21:29;;;;;;;9.82;4.30;;;6.20;99.90;;;-144.05;61.23;125687.94;5027803;28;20344;-83
2022/11/27 05:23:55;;;;;;;10.77;3.95;;;6.20;99.90;;;-144.05;61.52;125687.94;5015171;28;20101;-83
2022/11/27 05:26:21;;;;;;;14.93;3.95;;;6.20;99.90;;;-144.05;61.09;125687.94;5013747;28;20531;-83
2022/11/27 05:28:47;;;;;;;11.60;4.47;;;6.10;99.90;;;-144.05;60.97;125687.94;5014116;28;20034;-83
2022/11/27 05:31:12;;;;;;;11.50;4.38;;;6.20;99.90;;;-144.05;60.42;125687.94;5015704;28;20037;-83
2022/11/27 05:33:38;;;;;;;9.30;3.92;;;6.20;99.90;;;-144.05;60.35;125687.94;5014735;28;20022;-84
2022/11/27 05:36:04;;;;;;;12.85;4.57;;;6.30;99.90;;;-144.05;61.09;125687.94;5017743;28;20076;-84
2022/11/27 05:38:30;;;;;;;9.73;4.50;;;6.30;99.90;;;-144.05;60.80;125687.94;5018771;28;20022;-82
2022/11/27 05:40:56;;;;;;;8.88;4.07;;;6.30;99.90;;;-144.05;61.24;125687.94;5019548;28;20033;-83
2022/11/27 05:43:22;;;;;;;8.43;4.00;;;6.30;99.90;;;-144.05;61.31;125687.94;5017782;28;20393;-84
2022/11/27 05:45:48;;;;;;;8.00;4.10;;;6.20;99.90;;;-144.05;60.99;125687.94;5001032;28;20026;-82
2022/11/27 05:48:13;;;;;;;10.82;3.83;;;6.30;99.90;;;-144.05;60.94;125687.94;5017940;28;20061;-82
2022/11/27 05:50:39;;;;;;;9.55;4.50;;;6.30;99.90;;;-144.05;60.87;125687.94;5018592;28;20025;-86
2022/11/27 05:53:05;;;;;;;10.93;4.47;;;6.20;99.90;;;-144.05;61.43;125687.94;5015700;28;20065;-84
2022/11/27 05:55:31;;;;;;;8.23;4.35;;;6.20;99.90;;;-144.05;61.77;125687.94;5001042;28;20038;-83
2022/11/27 05:57:57;;;;;;;10.25;4.90;;;6.10;99.90;;;-144.05;60.97;125687.94;5001461;28;20022;-83
2022/11/27 06:00:25;;;;;;;10.57;4.60;;;6.10;99.90;;;-144.05;61.04;125687.94;5018879;28;20084;-82
2022/11/27 06:02:52;;;;;;;12.18;4.18;;;6.10;99.90;;;-144.05;60.89;125687.94;5018232;28;20153;-82
2022/11/27 06:05:18;;;;;;;11.48;4.55;;;6.10;99.90;;;-144.05;61.03;125687.94;5017981;28;20022;-83
2022/11/27 06:07:43;;;;;;;11.15;4.65;;;6.10;99.90;;;-144.05;61.72;125687.94;5018196;28;20029;-82
2022/11/27 06:10:10;;;;;;;12.63;5.00;;;6.10;99.90;;;-144.05;61.52;125687.94;5018592;28;20030;-82
2022/11/27 06:12:35;;;;;;;7.97;4.55;;;6.20;99.90;;;-144.05;61.39;125687.94;5019504;28;20025;-84
2022/11/27 06:15:02;;;;;;;11.57;5.20;;;6.20;99.90;;;-144.05;61.01;125687.94;5019536;28;20030;-83
2022/11/27 06:17:28;;;;;;;8.45;4.45;;;6.20;99.90;;;-144.05;61.09;125687.94;5017922;28;20033;-81
2022/11/27 06:19:54;;;;;;;10.57;4.22;;;6.10;99.90;;;-144.05;60.96;125687.94;5019744;28;20526;-83
2022/11/27 06:22:20;;;;;;;13.05;4.85;;;6.20;99.90;;;-144.05;61.01;125687.94;5017718;28;20104;-83
2022/11/27 06:24:46;;;;;;;8.52;4.10;;;6.20;99.90;;;-144.05;61.00;125687.94;5020035;28;20053;-82
2022/11/27 06:27:12;;;;;;;7.18;4.40;;;6.20;99.90;;;-144.05;61.09;125687.94;5020610;28;20030;-82
2022/11/27 06:29:38;;;;;;;13.43;4.72;;;6.10;99.90;;;-144.05;61.11;125687.94;5003012;28;20034;-82
2022/11/27 06:32:05;;;;;;;9.50;4.30;;;6.00;99.90;;;-144.05;61.08;125687.94;5003244;28;20565;-83
2022/11/27 06:34:31;;;;;;;7.95;4.45;;;6.00;99.90;;;-144.05;61.13;125687.94;5003541;28;20063;-82
2022/11/27 06:36:57;;;;;;;12.75;4.63;;;6.00;99.90;;;-144.05;60.87;125687.94;5019833;28;20128;-83
2022/11/27 06:39:23;;;;;;;6.55;4.00;;;6.10;99.90;;;-144.05;60.99;125687.94;5020507;28;20509;-83
2022/11/27 06:41:49;;;;;;;8.75;3.70;;;6.10;99.90;;;-144.05;61.09;125687.94;5021375;28;20030;-84
2022/11/27 06:44:14;;;;;;;7.28;3.55;;;6.20;99.90;;;-144.05;61.06;125687.94;5021444;28;20125;-82
2022/11/27 06:46:40;;;;;;;8.48;4.30;;;6.20;99.90;;;-144.05;61.01;125687.94;5020273;28;20042;-83
2022/11/27 06:49:06;;;;;;;6.70;3.33;;;6.20;99.90;;;-144.05;60.83;125687.94;5022392;28;20030;-84
2022/11/27 06:51:32;;;;;;;8.90;4.05;;;6.30;99.90;;;-144.05;60.63;125687.94;5022985;28;20033;-85
2022/11/27 06:54:00;;;;;;;11.98;4.53;;;6.40;99.90;;;-144.05;60.59;125687.94;5022501;28;20029;-84
2022/11/27 06:56:30;;;;;;;9.90;4.20;;;6.40;99.90;;;-144.05;61.11;125687.94;5023418;28;20398;-85
2022/11/27 06:58:59;;;;;;;8.00;4.10;;;6.50;99.90;;;-144.05;61.37;125687.94;5023590;28;20172;-81
2022/11/27 07:01:29;;;;;;;8.63;3.92;;;6.60;99.90;;;-144.05;60.83;125687.94;5008342;28;20438;-85
2022/11/27 07:03:57;;;;;;;10.35;3.92;;;6.60;99.90;;;-144.05;60.22;125687.94;5025812;28;20026;-82
2022/11/27 07:06:26;;;;;;;11.35;4.15;;;6.70;99.90;;;-144.05;60.42;125687.94;5025954;28;20026;-85
2022/11/27 07:08:54;;;;;;;9.82;4.40;;;6.70;99.90;;;-144.05;60.84;125687.94;5009123;28;20026;-84
2022/11/27 07:11:25;;;;;;;9.93;4.07;;;6.80;99.90;;;-144.05;60.35;125687.94;5020775;28;20141;-83
2022/11/27 07:13:55;;;;;;;9.30;3.83;;;6.80;99.90;;;-144.05;60.54;125687.94;5004088;28;20025;-83
2022/11/27 07:16:21;;;;;;;9.85;4.25;;;6.80;99.90;;;-144.05;60.73;125687.94;5004902;28;20125;-82
2022/11/27 07:18:54;;;;;;;7.47;4.60;;;6.90;99.90;;;-144.05;60.56;125687.94;5022721;28;20048;-83
2022/11/27 07:21:21;;;;;;;8.73;4.05;;;6.90;99.90;;;-144.05;60.99;125687.94;5023086;28;20398;-83
2022/11/27 07:23:47;;;;;;;11.52;4.15;;;6.90;99.90;;;-144.05;60.73;125687.94;5024546;28;20025;-82
2022/11/27 07:26:20;;;;;;;8.57;3.88;;;7.00;99.90;;;-144.05;60.40;125687.94;5026461;28;20369;-83
2022/11/27 07:28:47;;;;;;;7.97;3.90;;;7.00;99.90;;;-144.05;60.72;125687.94;5017056;28;20030;-84
2022/11/27 07:31:20;;;;;;;8.30;4.25;;;7.10;99.90;;;-144.05;60.57;125687.94;5023555;28;20498;-83
2022/11/27 07:33:47;;;;;;;12.15;4.45;;;7.20;99.90;;;-144.05;60.60;125687.94;5019940;28;20473;-83
2022/11/27 07:36:24;;;;;;;8.68;4.30;;;7.20;99.90;;;-144.05;60.73;125687.94;5019696;28;20057;-83
2022/11/27 07:38:51;;;;;;;11.57;4.88;;;7.30;99.90;;;-144.05;60.41;125687.94;5019422;28;20081;-84
2022/11/27 07:41:18;;;;;;;7.68;3.65;;;7.30;99.90;;;-144.05;59.73;125687.94;5003963;28;20059;-83
2022/11/27 07:43:45;;;;;;;7.95;4.18;;;7.40;99.90;;;-144.05;59.62;125687.94;5018186;28;20363;-82
2022/11/27 07:46:22;;;;;;;9.00;4.78;;;7.40;99.90;;;-144.05;59.92;125687.94;5019455;28;20390;-82
2022/11/27 07:48:49;;;;;;;8.57;4.15;;;7.40;99.90;;;-144.05;59.88;125687.94;5004527;28;20026;-83
2022/11/27 07:51:21;;;;;;;9.05;3.92;;;7.50;99.90;;;-144.05;59.90;125687.94;5004172;28;20034;-83
2022/11/27 07:53:50;;;;;;;6.00;3.60;;;7.50;99.90;;;-144.05;59.87;125687.94;5022280;28;20026;-82
2022/11/27 07:56:17;;;;;;;10.85;4.45;;;7.60;99.90;;;-144.05;60.01;125687.94;5020895;28;20033;-82
2022/11/27 07:58:44;;;;;;;10.32;3.95;;;7.60;99.90;;;-144.05;59.43;125687.94;5019773;28;20037;-83
2022/11/27 08:01:16;;;;;;;9.13;3.67;;;7.60;99.90;;;-144.05;59.34;125687.94;5022630;28;20081;-82
2022/11/27 08:03:43;;;;;;;9.25;4.03;;;7.60;99.90;;;-144.05;59.55;125687.94;5022470;28;20030;-82
2022/11/27 08:06:25;;;;;;;7.32;3.90;;;7.70;99.90;;;-144.05;59.53;125687.94;5021009;28;20030;-84
2022/11/27 08:08:55;;;;;;;11.65;3.83;;;7.60;99.90;;;-144.05;59.03;125687.94;5021354;28;20029;-83
2022/11/27 08:11:30;;;;;;;7.47;3.90;;;7.60;99.90;;;-144.05;58.92;125687.94;5019322;28;20026;-85
2022/11/27 08:14:03;;;;;;;9.57;4.28;;;7.60;99.90;;;-144.05;59.24;125687.94;5003406;28;20037;-82
2022/11/27 08:16:31;;;;;;;6.95;3.60;;;7.60;99.90;;;-144.05;59.41;125687.94;5021433;28;20033;-83
2022/11/27 08:18:57;;;;;;;8.38;3.80;;;7.60;99.90;;;-144.05;59.09;125687.94;5005154;28;20042;-82
2022/11/27 08:21:25;;;;;;;9.80;4.63;;;7.70;99.90;;;-144.05;59.02;125687.94;5022696;28;20048;-83
2022/11/27 08:23:51;;;;;;;13.13;4.13;;;7.70;99.90;;;-144.05;59.11;125687.94;5022876;28;20069;-83
2022/11/27 08:26:18;;;;;;;9.52;4.28;;;7.80;99.90;;;-144.05;58.63;125687.94;5025161;28;20026;-83
2022/11/27 08:28:44;;;;;;;8.43;3.88;;;7.80;99.90;;;-144.05;58.50;125687.94;5021078;28;20029;-84
2022/11/27 08:31:14;;;;;;;5.82;3.13;;;7.90;99.90;;;-144.05;57.91;125687.94;5005528;28;20030;-83
2022/11/27 08:33:40;;;;;;;7.00;3.22;;;8.00;99.90;;;-144.05;57.59;125687.94;5021487;28;20489;-84
2022/11/27 08:36:07;;;;;;;6.80;3.50;;;8.00;99.90;;;-144.05;57.22;125687.94;5006800;28;20436;-84
2022/11/27 08:38:33;;;;;;;10.90;4.20;;;8.10;99.90;;;-144.05;56.88;125687.94;5022342;28;20036;-84
2022/11/27 08:41:03;;;;;;;9.35;3.85;;;8.10;99.90;;;-144.05;56.93;125687.94;5021525;28;20030;-82
2022/11/27 08:43:31;;;;;;;13.40;4.18;;;8.20;99.90;;;-144.05;57.13;125687.94;5005237;28;20030;-84
2022/11/27 08:45:58;;;;;;;8.43;3.95;;;8.30;99.90;;;-144.05;56.40;125687.94;5023084;28;20030;-85
2022/11/27 08:48:25;;;;;;;6.30;3.42;;;8.40;99.90;;;-144.05;55.52;125687.94;5022716;28;20105;-83
2022/11/27 08:50:52;;;;;;;8.60;3.60;;;8.50;99.90;;;-144.05;55.78;125687.94;5021079;28;20125;-83
2022/11/27 08:53:18;;;;;;;9.13;3.55;;;8.60;99.90;;;-144.05;55.79;125687.94;5002742;28;20029;-83
2022/11/27 08:55:45;;;;;;;9.98;4.00;;;8.60;99.90;;;-144.05;55.80;125687.94;5020361;28;20424;-84
2022/11/27 08:58:11;;;;;;;12.30;3.72;;;8.60;99.90;;;-144.05;55.84;125687.94;5020653;28;20033;-84
2022/11/27 09:00:40;;;;;;;7.43;3.00;;;8.60;99.90;;;-144.05;55.47;125687.94;5025074;28;20064;-84
2022/11/27 09:03:06;;;;;;;7.10;3.35;;;8.60;99.90;;;-144.05;54.50;125687.94;5008859;28;20083;-83
2022/11/27 09:05:32;;;;;;;6.03;3.22;;;8.70;99.90;;;-144.05;54.84;125687.94;5010134;28;20068;-83
2022/11/27 09:08:01;;;;;;;7.82;3.50;;;8.60;99.90;;;-144.05;54.63;125687.94;5021895;28;20030;-83
2022/11/27 09:10:27;;;;;;;9.02;3.08;;;8.70;99.90;;;-144.05;54.56;125687.94;5020328;28;20351;-83
2022/11/27 09:12:55;;;;;;;7.55;3.17;;;8.70;99.90;;;-144.05;54.13;125687.94;5003139;28;20044;-84
2022/11/27 09:15:20;;;;;;;10.52;3.67;;;8.80;99.90;;;-144.05;53.93;125687.94;5019515;28;20116;-84
2022/11/27 09:17:46;;;;;;;6.97;3.22;;;8.80;99.90;;;-144.05;53.38;125687.94;5004091;28;20072;-83
2022/11/27 09:20:14;;;;;;;6.57;3.17;;;8.90;99.90;;;-144.05;53.06;125687.94;5021365;28;20037;-83
2022/11/27 09:22:40;;;;;;;7.03;2.97;;;8.90;99.90;;;-144.05;52.73;125687.94;5021262;28;20053;-84
2022/11/27 09:25:08;;;;;;;10.02;3.60;;;9.00;99.90;;;-144.05;52.03;125687.94;5021020;28;20026;-84
2022/11/27 09:27:36;;;;;;;9.07;3.13;;;9.10;99.90;;;-144.05;52.14;125687.94;5004864;28;20036;-85
2022/11/27 09:30:06;;;;;;;6.18;3.28;;;9.10;99.90;;;-144.05;52.14;125687.94;5022296;28;20052;-82
2022/11/27 09:32:32;;;;;;;6.88;3.20;;;9.20;99.90;;;-144.05;52.10;125687.94;5005301;28;20084;-84
2022/11/27 09:34:57;;;;;;;7.43;2.92;;;9.20;99.90;;;-144.05;51.38;125687.94;5029556;28;20021;-83
2022/11/27 09:37:23;;;;;;;5.30;2.90;;;9.20;99.90;;;-144.05;51.54;125687.94;5030539;28;20167;-82
2022/11/27 09:39:49;;;;;;;6.60;3.08;;;9.20;99.90;;;-144.05;51.11;125687.94;5020145;28;20125;-85
2022/11/27 09:42:39;;;;;;;5.25;2.72;;;9.30;99.90;;;-144.05;50.62;125687.94;5019735;28;20182;-83
2022/11/27 09:45:15;;;;;;;6.57;2.30;;;9.40;99.90;;;-144.05;50.97;125687.94;5022010;28;20029;-83
2022/11/27 09:47:51;;;;;;;;;;;9.50;99.90;;;-144.05;50.19;125687.94;5006126;28;20063;-84
2022/11/27 09:50:38;;;;;;;6.38;2.55;;;9.50;99.90;;;-144.05;49.85;125687.94;5007654;28;19920;-84
2022/11/27 09:53:26;;;;;;;;;;;9.50;99.90;;;-144.05;49.42;125687.94;5011748;28;20040;-85
2022/11/27 09:55:58;;;;;;;6.30;2.65;;;9.50;99.90;;;-144.05;49.14;125687.94;5005415;28;20011;-84
2022/11/27 09:59:01;;;;;;;5.72;2.17;;;9.50;99.90;;;-144.05;49.92;125687.94;5022732;28;20041;-83
2022/11/27 10:01:32;;;;;;;7.05;2.97;;;9.50;99.90;;;-144.05;49.91;125687.94;4981027;28;20050;-83
2022/11/27 10:04:01;;;;;;;5.57;2.78;;;9.40;99.90;;;-144.05;50.08;125687.94;5000440;28;20036;-84
2022/11/27 10:07:12;;;;;;;6.00;2.65;;;9.40;99.90;;;-144.05;49.96;125687.94;5021544;28;20030;-82
2022/11/27 10:10:32;;;;;;;4.75;2.40;;;9.40;99.90;;;-144.05;50.31;125687.94;4992518;28;20038;-83
2022/11/27 10:13:19;;;;;;;5.72;2.65;;;9.30;99.90;;;-144.05;50.00;125687.94;5003624;28;20022;-82
2022/11/27 10:16:35;;;;;;;8.00;2.88;;;9.40;99.90;;;-144.05;49.40;125687.94;5022565;28;20026;-84
2022/11/27 10:19:30;;;;;;;4.57;2.38;;;9.40;99.90;;;-144.05;48.96;125687.94;5035028;23;20042;-78
2022/11/27 10:22:16;;;;;;;5.22;1.98;;;9.50;99.90;;;-144.05;48.87;125687.94;5019515;28;20033;-77
2022/11/27 10:24:57;;;;;;;4.88;2.20;;;9.60;99.90;;;-144.05;48.61;125687.94;5020318;28;20559;-78
2022/11/27 10:27:53;;;;;;;5.10;2.50;;;9.70;99.90;;;-144.05;47.82;125687.94;5020209;28;20370;-79
2022/11/27 10:30:21;;;;;;;4.53;2.20;;;9.80;99.90;;;-144.05;48.37;125687.94;5042783;23;20040;-80